Aviation Digital Data Service (ADDS)

Output produced by METARs form (0242 UTC 24 July 2017)
found at http://www.aviationweather.gov/adds/metars/
 
MNBL 232115Z 2400/2424 09008KT 9999 SCT018 
     TEMPO 2404/2408 06004KT 7000 VCRA/DZ BKN016 SCT070 
     BECMG 2409/2412 36004KT
       
MNMG 232115Z 2400/2424 07010KT 9999 SCT022TCU 
     TEMPO 2403/2407 VRB08KT 7000 DZ/-TSRA FEW020CB SCT021 
     BECMG 2410/2412 12004KT 9999 FEW020 SCT070
       
MNPC 232115Z 2400/2424 06010KT 6000 VCRA BKN016TCU 
     TEMPO 2407/ 2412 05004KT